Time;durP1;ratioP1;P1;durP2;ratioP2;P2;SDS_P1;SDS_P2;PMS_P1;PMS_P2;Temp;Humidity;BMP_temperature;BMP_pressure;BME280_temperature;BME280_humidity;BME280_pressure;Samples;Min_cycle;Max_cycle;Signal;HPM_P1;HPM_P2
2023/02/12 00:02:05;;;;;;;;;60.00;45.67;18.70;30.60;;;;;;110348;1252;49861;-60
2023/02/12 00:04:33;;;;;;;;;55.00;44.00;18.80;30.70;;;;;;110346;1247;49647;-60
2023/02/12 00:07:00;;;;;;;;;60.67;46.67;18.90;30.70;;;;;;110386;1252;46096;-62
2023/02/12 00:09:26;;;;;;;;;62.50;49.00;19.00;30.60;;;;;;110435;1252;55320;-60
2023/02/12 00:11:53;;;;;;;;;57.50;44.50;19.10;30.80;;;;;;110402;1252;54131;-62
2023/02/12 00:14:20;;;;;;;;;56.00;43.00;19.20;30.70;;;;;;110442;1251;49261;-61
2023/02/12 00:16:47;;;;;;;;;55.00;44.50;19.40;30.80;;;;;;110390;1249;49155;-60
2023/02/12 00:19:14;;;;;;;;;52.00;44.33;19.50;30.80;;;;;;110487;1250;45531;-62
2023/02/12 00:21:41;;;;;;;;;55.50;45.00;19.60;30.80;;;;;;110410;1252;57234;-59
2023/02/12 00:24:08;;;;;;;;;58.00;47.00;19.70;30.80;;;;;;110445;1252;54176;-61
2023/02/12 00:26:35;;;;;;;;;55.00;45.00;19.80;30.80;;;;;;110494;1252;50441;-62
2023/02/12 00:29:02;;;;;;;;;58.75;45.50;19.90;30.90;;;;;;110465;1250;49364;-63
2023/02/12 00:31:30;;;;;;;;;59.50;45.50;20.00;30.90;;;;;;110483;1248;45920;-62
2023/02/12 00:33:58;;;;;;;;;57.67;46.67;20.10;30.90;;;;;;110459;1248;55733;-60
2023/02/12 00:36:27;;;;;;;;;58.00;46.00;20.20;30.70;;;;;;110439;1247;54330;-61
2023/02/12 00:38:55;;;;;;;;;52.67;42.67;20.30;30.90;;;;;;110422;1252;49024;-60
2023/02/12 00:41:22;;;;;;;;;53.50;43.50;20.40;30.90;;;;;;110446;1247;49055;-61
2023/02/12 00:43:49;;;;;;;;;56.00;45.00;20.50;30.90;;;;;;110518;1247;45126;-59
2023/02/12 00:46:17;;;;;;;;;58.00;46.00;20.50;30.80;;;;;;110394;1247;55104;-60
2023/02/12 00:48:44;;;;;;;;;52.67;42.67;20.60;30.90;;;;;;110435;1252;54255;-60
2023/02/12 00:51:11;;;;;;;;;56.00;47.00;20.60;30.80;;;;;;110494;1247;50304;-60
2023/02/12 00:53:38;;;;;;;;;53.00;45.00;20.60;30.80;;;;;;110478;1248;49038;-60
2023/02/12 00:56:05;;;;;;;;;55.33;45.33;20.60;30.80;;;;;;110379;1252;45162;-60
2023/02/12 00:58:32;;;;;;;;;58.67;46.00;20.70;30.80;;;;;;110252;1248;55500;-61
2023/02/12 01:00:59;;;;;;;;;54.00;44.33;20.70;30.80;;;;;;110419;1248;53596;-60
2023/02/12 01:03:26;;;;;;;;;55.00;45.00;20.70;30.80;;;;;;110500;1252;49033;-61
2023/02/12 01:05:53;;;;;;;;;54.00;44.67;20.70;31.00;;;;;;110369;1248;49507;-60
2023/02/12 01:08:21;;;;;;;;;54.00;45.00;20.70;31.00;;;;;;110477;1248;46614;-61
2023/02/12 01:10:56;;;;;;;;;57.50;44.00;20.70;30.80;;;;;;110452;1248;55845;-61
2023/02/12 01:13:24;;;;;;;;;51.00;44.00;20.60;30.70;;;;;;110415;1252;54780;-59
2023/02/12 01:16:05;;;;;;;;;49.00;40.50;20.60;30.70;;;;;;110452;1252;49954;-61
2023/02/12 01:18:32;;;;;;;;;57.00;46.00;20.60;30.70;;;;;;110466;1247;49938;-62
2023/02/12 01:21:00;;;;;;;;;55.00;45.50;20.60;30.70;;;;;;110454;1252;45125;-61
2023/02/12 01:23:27;;;;;;;;;60.50;48.00;20.60;30.90;;;;;;110510;1251;56246;-61
2023/02/12 01:25:54;;;;;;;;;58.00;47.67;20.50;30.60;;;;;;110478;1252;53662;-60
2023/02/12 01:28:21;;;;;;;;;56.00;44.00;20.50;30.80;;;;;;110534;1248;49055;-60
2023/02/12 01:30:48;;;;;;;;;60.00;47.00;20.50;30.60;;;;;;110502;1248;49722;-59
2023/02/12 01:33:15;;;;;;;;;62.00;47.00;20.40;30.60;;;;;;110517;1252;45059;-62
2023/02/12 01:35:42;;;;;;;;;58.00;48.00;20.40;30.80;;;;;;110493;1252;56253;-62
2023/02/12 01:38:08;;;;;;;;;59.00;47.00;20.30;30.50;;;;;;110514;1252;54791;-60
2023/02/12 01:40:36;;;;;;;;;56.00;45.00;20.30;30.40;;;;;;110488;1248;49802;-61
2023/02/12 01:43:05;;;;;;;;;54.00;43.00;20.20;30.30;;;;;;110465;1248;49218;-60
2023/02/12 01:45:35;;;;;;;;;54.67;44.67;20.20;30.20;;;;;;110451;1248;46147;-62
2023/02/12 01:48:02;;;;;;;;;59.67;48.33;20.10;30.10;;;;;;110523;1248;55431;-60
2023/02/12 01:50:29;;;;;;;;;53.00;44.50;20.10;30.20;;;;;;110485;1248;53950;-61
2023/02/12 01:52:57;;;;;;;;;50.67;40.67;20.00;30.10;;;;;;110491;1248;49916;-62
2023/02/12 01:55:24;;;;;;;;;52.67;44.67;20.00;30.00;;;;;;110532;1252;49375;-62
2023/02/12 01:57:51;;;;;;;;;56.25;44.50;19.90;30.00;;;;;;110532;1248;45699;-62
2023/02/12 02:00:22;;;;;;;;;58.75;45.75;19.90;30.00;;;;;;110492;1252;56025;-60
2023/02/12 02:02:55;;;;;;;;;55.67;44.67;19.90;29.90;;;;;;110470;1247;54017;-61
2023/02/12 02:05:39;;;;;;;;;57.75;43.75;19.80;30.00;;;;;;110509;1248;50527;-61
2023/02/12 02:08:08;;;;;;;;;56.00;46.50;19.70;29.90;;;;;;110390;1253;50383;-61
2023/02/12 02:10:35;;;;;;;;;58.00;45.50;19.70;29.90;;;;;;110490;1252;46000;-61
2023/02/12 02:15:50;;;;;;;;;57.50;46.00;19.60;30.00;;;;;;110325;1249;54282;-61
2023/02/12 02:18:31;;;;;;;;;57.33;45.33;19.50;29.90;;;;;;110154;1252;50550;-60
2023/02/12 02:21:13;;;;;;;;;58.00;46.00;19.50;29.90;;;;;;110470;1252;49248;-62
2023/02/12 02:23:52;;;;;;;;;59.00;47.50;19.50;29.90;;;;;;110485;1252;45940;-59
2023/02/12 02:26:38;;;;;;;;;55.67;44.33;19.40;29.90;;;;;;110466;1248;55491;-60
2023/02/12 02:29:36;;;;;;;;;59.67;46.67;19.40;30.00;;;;;;110535;1252;53456;-61
2023/02/12 02:32:11;;;;;;;;;59.75;46.75;19.30;29.90;;;;;;110430;1248;49647;-60
2023/02/12 02:35:06;;;;;;;;;56.00;45.00;19.30;30.10;;;;;;110417;1248;50339;-60
2023/02/12 02:37:40;;;;;;;;;61.00;49.50;19.20;30.00;;;;;;110444;1248;46461;-60
2023/02/12 02:40:06;;;;;;;;;60.67;46.33;19.20;30.00;;;;;;110473;1252;56353;-60
2023/02/12 02:42:53;;;;;;;;;55.00;46.00;19.10;30.00;;;;;;110449;1248;53477;-60
2023/02/12 02:45:25;;;;;;;;;57.67;46.67;19.00;30.00;;;;;;110433;1248;50385;-60
2023/02/12 02:47:58;;;;;;;;;59.67;48.67;19.00;30.00;;;;;;110445;1252;49602;-61
2023/02/12 02:50:27;;;;;;;;;54.50;45.00;18.90;30.00;;;;;;110399;1248;45070;-61
2023/02/12 02:53:04;;;;;;;;;57.00;46.00;18.90;30.30;;;;;;110475;1252;55302;-60
2023/02/12 02:55:45;;;;;;;;;60.33;48.67;18.80;30.10;;;;;;110360;1249;53809;-60
2023/02/12 02:58:22;;;;;;;;;59.00;48.00;18.70;30.10;;;;;;110527;1247;50362;-60
2023/02/12 03:01:02;;;;;;;;;57.00;47.00;18.70;30.20;;;;;;110292;1252;49192;-62
2023/02/12 03:03:39;;;;;;;;;58.50;46.50;18.60;30.30;;;;;;110432;1250;45238;-60
2023/02/12 03:06:26;;;;;;;;;58.50;45.00;18.50;30.40;;;;;;110444;1248;55731;-60
2023/02/12 03:09:01;;;;;;;;;58.67;48.00;18.50;30.70;;;;;;110404;1248;54391;-60
2023/02/12 03:11:33;;;;;;;;;54.00;42.67;18.40;30.80;;;;;;110408;1248;49786;-61
2023/02/12 03:14:15;;;;;;;;;56.00;46.00;18.30;30.60;;;;;;110254;1253;48868;-61
2023/02/12 03:17:28;;;;;;;;;51.00;43.00;18.30;30.80;;;;;;110276;1252;45853;-60
2023/02/12 03:19:59;;;;;;;;;61.33;49.33;18.10;30.70;;;;;;110409;1252;55344;-62
2023/02/12 03:22:40;;;;;;;;;57.75;44.75;18.10;30.80;;;;;;110465;1247;53900;-60
2023/02/12 03:25:15;;;;;;;;;62.00;46.33;18.00;31.00;;;;;;110458;1248;49665;-61
2023/02/12 03:27:46;;;;;;;;;55.00;43.00;18.00;31.00;;;;;;110396;1252;49350;-62
2023/02/12 03:30:14;;;;;;;;;53.33;44.67;18.10;31.10;;;;;;110517;1247;45786;-61
2023/02/12 03:33:15;;;;;;;;;54.00;45.00;18.20;31.30;;;;;;110541;1248;56099;-60
2023/02/12 03:35:59;;;;;;;;;56.67;46.33;18.30;31.10;;;;;;110732;1248;53621;-62
2023/02/12 03:38:36;;;;;;;;;52.00;41.50;18.50;31.10;;;;;;110384;1252;50335;-60
2023/02/12 03:41:09;;;;;;;;;51.50;42.50;18.70;31.00;;;;;;110227;1253;49149;-62
2023/02/12 03:44:22;;;;;;;;;55.00;44.00;18.90;31.00;;;;;;110388;1248;45474;-59
2023/02/12 03:47:03;;;;;;;;;51.00;42.00;19.00;30.90;;;;;;110362;1248;55268;-59
2023/02/12 03:49:36;;;;;;;;;51.00;42.33;19.20;31.00;;;;;;110445;1252;54177;-60
2023/02/12 03:52:03;;;;;;;;;55.00;44.00;19.40;31.00;;;;;;109768;1248;784972;-59
2023/02/12 03:54:30;;;;;;;;;53.75;44.75;19.50;31.00;;;;;;110401;1248;50054;-61
2023/02/12 03:57:07;;;;;;;;;52.00;42.00;19.60;31.00;;;;;;110274;1249;45807;-61
2023/02/12 03:59:35;;;;;;;;;52.00;44.00;19.80;31.10;;;;;;110390;1252;55686;-61
2023/02/12 04:02:03;;;;;;;;;52.75;42.00;19.90;31.00;;;;;;110461;1252;54689;-61
2023/02/12 04:04:30;;;;;;;;;52.33;43.00;20.00;31.10;;;;;;110412;1248;49580;-62
2023/02/12 04:06:57;;;;;;;;;56.00;45.00;20.10;31.20;;;;;;110197;1253;49284;-61
2023/02/12 04:09:26;;;;;;;;;50.00;42.00;20.20;31.20;;;;;;110524;1247;45813;-61
2023/02/12 04:12:02;;;;;;;;;51.50;43.00;20.20;31.00;;;;;;110370;1248;55665;-61
2023/02/12 04:14:44;;;;;;;;;50.33;40.67;20.30;31.00;;;;;;110383;1248;53801;-60
2023/02/12 04:17:45;;;;;;;;;52.33;42.00;20.30;31.00;;;;;;110419;1247;50021;-60
2023/02/12 04:20:25;;;;;;;;;49.00;41.33;20.40;31.00;;;;;;110449;1252;49793;-61
2023/02/12 04:23:46;;;;;;;;;53.00;42.00;20.50;31.00;;;;;;110443;1252;45677;-60
2023/02/12 04:26:30;;;;;;;;;49.00;41.00;20.50;31.00;;;;;;109943;1252;55451;-60
2023/02/12 04:29:03;;;;;;;;;49.00;39.67;20.50;31.10;;;;;;110325;1252;54287;-61
2023/02/12 04:31:43;;;;;;;;;54.00;43.00;20.60;30.80;;;;;;110359;1248;49463;-60
2023/02/12 04:34:37;;;;;;;;;56.00;43.00;20.60;31.00;;;;;;110400;1248;48978;-61
2023/02/12 04:37:13;;;;;;;;;46.50;39.50;20.60;30.80;;;;;;110416;1252;46795;-61
2023/02/12 04:39:40;;;;;;;;;53.00;42.00;20.60;31.30;;;;;;110428;1248;55690;-61
2023/02/12 04:42:08;;;;;;;;;53.00;43.00;20.60;30.70;;;;;;110227;1248;55060;-60
2023/02/12 04:44:38;;;;;;;;;52.00;41.00;20.50;30.70;;;;;;110337;1248;49752;-61
2023/02/12 04:47:05;;;;;;;;;47.33;38.67;20.50;30.70;;;;;;110410;1248;49725;-60
2023/02/12 04:49:32;;;;;;;;;55.00;43.00;20.50;30.70;;;;;;110502;1250;45115;-62
2023/02/12 04:51:59;;;;;;;;;50.00;40.50;20.50;30.70;;;;;;110385;1248;55802;-61
2023/02/12 04:54:26;;;;;;;;;50.00;40.00;20.40;30.70;;;;;;110450;1248;53693;-61
2023/02/12 04:56:53;;;;;;;;;52.67;42.67;20.40;30.80;;;;;;110340;1249;49418;-61
2023/02/12 04:59:20;;;;;;;;;50.00;40.00;20.40;30.70;;;;;;110389;1252;49074;-60
2023/02/12 05:01:47;;;;;;;;;52.00;42.00;20.30;30.60;;;;;;110434;1252;45831;-60
2023/02/12 05:04:15;;;;;;;;;47.00;37.00;20.30;30.50;;;;;;110424;1249;56551;-60
2023/02/12 05:06:44;;;;;;;;;51.50;41.00;20.20;30.40;;;;;;110346;1249;55602;-63
2023/02/12 05:09:16;;;;;;;;;48.33;39.33;20.20;30.40;;;;;;110443;1248;49989;-61
2023/02/12 05:11:43;;;;;;;;;51.00;42.00;20.20;30.30;;;;;;110424;1250;49603;-61
2023/02/12 05:14:11;;;;;;;;;54.00;41.33;20.10;30.20;;;;;;110433;1247;45538;-60
2023/02/12 05:16:38;;;;;;;;;49.00;41.00;20.10;30.20;;;;;;110464;1252;55400;-60
2023/02/12 05:19:08;;;;;;;;;53.00;43.50;20.00;30.00;;;;;;110522;1248;54507;-62
2023/02/12 05:21:36;;;;;;;;;49.00;38.50;20.00;30.10;;;;;;110468;1252;50148;-61
2023/02/12 05:24:04;;;;;;;;;49.00;40.00;19.90;30.00;;;;;;110358;1248;49988;-61
2023/02/12 05:26:31;;;;;;;;;50.67;42.67;19.80;30.00;;;;;;110349;1252;45223;-60
2023/02/12 05:28:58;;;;;;;;;51.50;41.50;19.80;30.20;;;;;;110316;1248;56056;-60
2023/02/12 05:31:25;;;;;;;;;52.00;41.33;19.80;30.00;;;;;;110345;1252;53879;-60
2023/02/12 05:33:52;;;;;;;;;46.50;38.50;19.80;30.20;;;;;;110361;1247;49521;-60
2023/02/12 05:36:22;;;;;;;;;50.67;41.33;19.70;30.20;;;;;;110279;1248;49361;-60
2023/02/12 05:38:51;;;;;;;;;54.67;45.67;19.60;30.00;;;;;;110341;1252;45465;-60
2023/02/12 05:41:21;;;;;;;;;50.00;42.00;19.60;30.10;;;;;;110362;1252;56026;-60
2023/02/12 05:43:49;;;;;;;;;53.67;42.00;19.50;30.10;;;;;;110325;1249;53368;-59
2023/02/12 05:46:20;;;;;;;;;54.00;42.00;19.50;30.10;;;;;;110321;1252;49885;-60
2023/02/12 05:48:47;;;;;;;;;54.25;45.00;19.50;30.20;;;;;;110269;1252;48901;-61
2023/02/12 05:51:20;;;;;;;;;52.00;43.00;19.40;30.10;;;;;;110271;1248;45663;-61
2023/02/12 05:53:49;;;;;;;;;46.00;39.33;19.40;30.10;;;;;;110307;1249;56468;-61
2023/02/12 05:56:27;;;;;;;;;53.50;44.50;19.30;30.10;;;;;;110293;1252;54154;-60
2023/02/12 05:58:57;;;;;;;;;54.67;44.33;19.30;30.20;;;;;;110281;1248;49076;-61
2023/02/12 06:01:27;;;;;;;;;51.33;42.33;19.20;29.80;;;;;;110280;1249;50245;-61
2023/02/12 06:03:54;;;;;;;;;51.00;41.00;19.20;30.20;;;;;;110380;1248;45266;-61
2023/02/12 06:06:21;;;;;;;;;54.00;42.50;19.20;30.20;;;;;;110325;1252;55893;-61
2023/02/12 06:08:48;;;;;;;;;50.00;43.00;19.20;30.30;;;;;;110300;1252;55019;-60
2023/02/12 06:11:16;;;;;;;;;53.67;44.00;19.10;30.30;;;;;;110422;1248;49503;-62
2023/02/12 06:13:43;;;;;;;;;53.33;42.33;19.10;30.40;;;;;;110398;1252;49335;-60
2023/02/12 06:16:22;;;;;;;;;52.67;42.67;19.00;30.40;;;;;;110442;1248;45531;-61
2023/02/12 06:18:50;;;;;;;;;52.00;43.00;18.90;30.40;;;;;;110351;1248;55411;-61
2023/02/12 06:21:18;;;;;;;;;58.67;45.67;18.90;30.70;;;;;;110456;1252;54523;-61
2023/02/12 06:23:46;;;;;;;;;54.00;45.00;18.80;30.80;;;;;;110459;1252;50129;-60
2023/02/12 06:26:14;;;;;;;;;60.50;46.50;18.80;30.70;;;;;;110437;1252;50555;-60
2023/02/12 06:28:41;;;;;;;;;55.50;44.00;18.70;30.70;;;;;;110426;1247;45454;-59
2023/02/12 06:31:41;;;;;;;;;55.25;44.00;18.60;30.80;;;;;;110484;1252;55470;-61
2023/02/12 06:34:10;;;;;;;;;54.67;43.67;18.60;30.90;;;;;;109991;1247;54330;-60
2023/02/12 06:36:39;;;;;;;;;54.00;44.33;18.50;31.00;;;;;;110397;1248;50971;-60
2023/02/12 06:39:07;;;;;;;;;55.33;44.67;18.40;31.10;;;;;;110462;1248;50691;-61
2023/02/12 06:41:34;;;;;;;;;58.33;45.33;18.30;31.10;;;;;;110437;1252;45510;-60
2023/02/12 06:44:01;;;;;;;;;53.67;43.00;18.30;31.20;;;;;;110411;1248;55992;-61
2023/02/12 06:46:28;;;;;;;;;51.00;41.00;18.20;31.30;;;;;;110427;1248;53921;-61
2023/02/12 06:48:57;;;;;;;;;55.75;45.75;18.10;31.50;;;;;;110122;1252;49402;-62
2023/02/12 06:51:25;;;;;;;;;55.50;45.00;18.00;32.00;;;;;;110411;1252;50389;-60
2023/02/12 06:53:53;;;;;;;;;54.00;44.00;17.80;31.70;;;;;;110463;1248;46242;-62
2023/02/12 06:56:23;;;;;;;;;52.00;43.50;17.70;31.80;;;;;;110487;1248;55672;-63
2023/02/12 06:58:55;;;;;;;;;54.00;45.00;17.70;32.10;;;;;;110333;1249;54261;-62
2023/02/12 07:01:25;;;;;;;;;55.00;44.00;17.70;31.90;;;;;;110477;1252;49405;-60
2023/02/12 07:04:10;;;;;;;;;54.00;46.00;17.60;32.20;;;;;;110478;1252;49414;-62
2023/02/12 07:06:37;;;;;;;;;52.75;43.00;17.60;32.10;;;;;;110488;1252;45760;-63
2023/02/12 07:09:05;;;;;;;;;52.00;42.00;17.60;32.10;;;;;;110489;1248;55154;-61
2023/02/12 07:11:33;;;;;;;;;49.50;41.50;17.50;32.00;;;;;;110476;1252;54469;-64
2023/02/12 07:14:00;;;;;;;;;54.50;43.00;17.50;32.10;;;;;;110309;1252;49330;-61
2023/02/12 07:16:27;;;;;;;;;53.00;43.00;17.50;32.20;;;;;;110403;1252;49093;-64
2023/02/12 07:18:54;;;;;;;;;57.00;46.00;17.40;32.20;;;;;;110506;1252;45345;-63
2023/02/12 07:21:22;;;;;;;;;54.00;45.00;17.40;32.30;;;;;;110485;1249;55770;-60
2023/02/12 07:23:50;;;;;;;;;58.00;46.00;17.40;32.30;;;;;;110467;1253;54740;-61
2023/02/12 07:26:19;;;;;;;;;54.25;44.00;17.30;32.30;;;;;;110439;1249;49062;-61
2023/02/12 07:28:46;;;;;;;;;53.50;42.50;17.30;32.70;;;;;;110453;1252;49853;-61
2023/02/12 07:31:19;;;;;;;;;54.00;45.00;17.40;32.20;;;;;;110483;1252;46732;-61
2023/02/12 07:33:46;;;;;;;;;52.00;41.00;17.50;32.20;;;;;;110475;1248;54972;-60
2023/02/12 07:36:18;;;;;;;;;54.50;44.50;17.60;32.50;;;;;;110472;1247;53987;-60
2023/02/12 07:38:46;;;;;;;;;55.00;45.00;17.70;32.10;;;;;;110254;1252;49333;-59
2023/02/12 07:41:13;;;;;;;;;53.33;43.00;17.90;32.10;;;;;;110449;1252;49387;-60
2023/02/12 07:43:42;;;;;;;;;56.00;45.00;18.10;32.00;;;;;;110420;1252;45156;-60
2023/02/12 07:46:12;;;;;;;;;52.50;44.00;18.30;31.90;;;;;;110436;1248;55508;-61
2023/02/12 07:48:39;;;;;;;;;51.00;41.33;18.50;32.10;;;;;;110536;1252;54522;-61
2023/02/12 07:51:09;;;;;;;;;54.50;43.00;18.70;31.90;;;;;;110479;1252;49880;-61
2023/02/12 07:53:37;;;;;;;;;57.67;42.67;18.80;31.80;;;;;;110554;1248;50744;-61
2023/02/12 07:56:08;;;;;;;;;55.50;45.25;19.00;31.80;;;;;;110476;1252;45744;-61
2023/02/12 07:58:35;;;;;;;;;55.00;43.50;19.20;31.90;;;;;;110506;1248;55478;-61
2023/02/12 08:01:17;;;;;;;;;49.75;41.75;19.30;31.80;;;;;;110381;1252;53594;-61
2023/02/12 08:03:46;;;;;;;;;52.00;43.00;19.40;31.70;;;;;;110408;1252;50531;-62
2023/02/12 08:06:16;;;;;;;;;53.00;45.00;19.60;31.80;;;;;;110417;1248;49607;-61
2023/02/12 08:08:44;;;;;;;;;55.50;45.50;19.80;31.80;;;;;;110330;1248;46125;-61
2023/02/12 08:11:13;;;;;;;;;50.00;41.00;19.90;31.80;;;;;;110318;1252;56563;-60
2023/02/12 08:13:40;;;;;;;;;57.00;46.50;20.00;31.70;;;;;;110357;1248;53474;-61
2023/02/12 08:16:13;;;;;;;;;58.00;46.25;20.10;32.20;;;;;;110279;1253;49628;-60
2023/02/12 08:18:41;;;;;;;;;54.50;44.00;20.30;31.70;;;;;;110406;1248;49765;-60
2023/02/12 08:21:13;;;;;;;;;55.00;45.00;20.40;31.50;;;;;;110447;1252;46581;-61
2023/02/12 08:23:40;;;;;;;;;53.00;44.00;20.60;31.60;;;;;;110345;1248;56278;-61
2023/02/12 08:26:13;;;;;;;;;54.50;43.50;20.60;31.50;;;;;;110452;1252;54268;-61
2023/02/12 08:28:44;;;;;;;;;52.00;43.00;20.70;31.40;;;;;;110423;1247;50137;-61
2023/02/12 08:31:14;;;;;;;;;53.33;43.00;20.90;31.40;;;;;;110385;1252;49413;-61
2023/02/12 08:33:41;;;;;;;;;58.50;45.50;21.00;31.60;;;;;;110353;1252;45343;-61
2023/02/12 08:36:10;;;;;;;;;54.00;44.00;21.10;31.30;;;;;;110284;1252;55886;-60
2023/02/12 08:38:38;;;;;;;;;55.00;43.00;21.20;31.30;;;;;;110475;1252;53366;-60
2023/02/12 08:41:09;;;;;;;;;53.67;43.00;21.30;31.20;;;;;;110342;1252;50926;-59
2023/02/12 08:43:36;;;;;;;;;51.50;43.50;21.40;31.20;;;;;;110388;1248;50747;-60
2023/02/12 08:46:13;;;;;;;;;55.33;44.67;21.50;31.20;;;;;;110397;1252;45881;-60
2023/02/12 08:48:41;;;;;;;;;53.00;44.00;21.60;31.20;;;;;;110467;1248;55167;-61
2023/02/12 08:51:17;;;;;;;;;54.33;45.00;21.70;31.10;;;;;;110430;1252;53211;-60
2023/02/12 08:53:46;;;;;;;;;51.00;41.75;21.80;31.30;;;;;;110447;1248;49374;-61
2023/02/12 08:56:15;;;;;;;;;55.67;44.00;21.90;31.20;;;;;;110429;1252;49213;-60
2023/02/12 08:58:43;;;;;;;;;56.25;45.00;22.00;31.10;;;;;;110371;1251;45822;-60
2023/02/12 09:01:15;;;;;;;;;52.50;42.00;22.10;31.00;;;;;;110424;1252;55506;-61
2023/02/12 09:03:43;;;;;;;;;50.00;42.00;22.20;31.60;;;;;;110494;1248;54317;-60
2023/02/12 09:06:11;;;;;;;;;52.33;42.33;22.30;31.20;;;;;;110495;1250;49159;-60
2023/02/12 09:08:39;;;;;;;;;52.50;42.50;22.40;31.00;;;;;;110492;1248;49712;-60
2023/02/12 09:11:11;;;;;;;;;56.00;45.00;22.50;30.90;;;;;;110506;1248;45592;-61
2023/02/12 09:13:38;;;;;;;;;52.75;42.25;22.60;30.90;;;;;;110431;1252;56392;-61
2023/02/12 09:16:06;;;;;;;;;51.00;40.00;22.70;30.90;;;;;;110363;1248;53503;-61
2023/02/12 09:18:33;;;;;;;;;52.67;43.00;22.80;31.00;;;;;;110386;1248;49932;-61
2023/02/12 09:21:03;;;;;;;;;56.00;44.67;22.90;31.10;;;;;;110456;1248;49596;-61
2023/02/12 09:23:30;;;;;;;;;48.50;39.50;23.00;30.90;;;;;;110425;1251;45369;-60
2023/02/12 09:25:57;;;;;;;;;49.25;40.50;23.00;30.80;;;;;;110384;1248;56193;-61
2023/02/12 09:28:25;;;;;;;;;53.25;42.75;23.10;30.80;;;;;;110496;1252;54286;-62
2023/02/12 09:30:52;;;;;;;;;51.50;41.50;23.20;30.80;;;;;;110510;1252;49219;-60
2023/02/12 09:33:19;;;;;;;;;56.00;43.00;23.30;30.80;;;;;;110504;1252;48964;-61
2023/02/12 09:35:46;;;;;;;;;53.33;42.67;23.30;30.70;;;;;;110427;1248;45233;-60
2023/02/12 09:38:13;;;;;;;;;49.00;39.50;23.40;30.80;;;;;;110414;1252;56322;-60
2023/02/12 09:40:43;;;;;;;;;50.00;39.33;23.40;30.70;;;;;;110347;1252;54722;-63
2023/02/12 09:43:09;;;;;;;;;44.50;36.50;23.50;30.70;;;;;;110428;1252;49276;-62
2023/02/12 09:45:57;;;;;;;;;48.00;39.00;23.50;30.90;;;;;;110437;1252;49267;-65
2023/02/12 09:48:48;;;;;;;;;48.00;40.67;23.50;30.70;;;;;;110517;1247;45404;-60
2023/02/12 09:51:16;;;;;;;;;47.00;40.00;23.50;30.60;;;;;;110475;1247;55252;-61
2023/02/12 09:53:45;;;;;;;;;45.67;38.33;23.50;30.60;;;;;;110441;1248;53775;-60
2023/02/12 09:56:14;;;;;;;;;46.67;38.00;23.50;30.80;;;;;;110501;1249;49052;-61
2023/02/12 09:58:53;;;;;;;;;51.50;42.00;23.50;30.60;;;;;;110497;1248;49515;-64
2023/02/12 10:01:21;;;;;;;;;50.00;41.00;23.50;30.60;;;;;;110575;1248;46445;-61
2023/02/12 10:03:50;;;;;;;;;45.67;37.00;23.50;30.50;;;;;;110473;1247;56271;-61
2023/02/12 10:06:26;;;;;;;;;52.00;42.50;23.50;30.60;;;;;;110450;1248;54918;-61
2023/02/12 10:09:05;;;;;;;;;47.25;39.50;23.50;30.60;;;;;;110547;1248;50562;-60
2023/02/12 10:11:44;;;;;;;;;48.00;39.67;23.50;30.60;;;;;;110511;1248;49612;-62
2023/02/12 10:14:36;;;;;;;;;48.00;38.00;23.50;30.60;;;;;;110466;1248;45556;-61
2023/02/12 10:17:13;;;;;;;;;49.00;40.50;23.40;30.60;;;;;;110522;1248;57055;-60
2023/02/12 10:19:50;;;;;;;;;51.33;42.00;23.40;30.60;;;;;;110385;1247;53988;-60
2023/02/12 10:22:37;;;;;;;;;50.00;41.33;23.40;30.60;;;;;;110411;1248;49824;-60
2023/02/12 10:25:31;;;;;;;;;47.00;37.00;23.40;30.60;;;;;;110428;1252;49495;-60
2023/02/12 10:28:01;;;;;;;;;46.00;36.67;23.40;30.70;;;;;;110242;1252;46053;-60
2023/02/12 10:30:42;;;;;;;;;53.00;43.50;23.30;30.60;;;;;;110485;1247;56745;-60
2023/02/12 10:33:16;;;;;;;;;48.50;38.50;23.30;30.60;;;;;;110330;1250;53614;-60
2023/02/12 10:35:50;;;;;;;;;51.00;39.00;23.30;30.70;;;;;;110305;1249;50500;-60
2023/02/12 10:38:21;;;;;;;;;49.00;38.67;23.30;30.70;;;;;;110525;1248;48831;-60
2023/02/12 10:40:49;;;;;;;;;46.67;39.00;23.30;30.70;;;;;;110227;1252;45288;-61
2023/02/12 10:43:16;;;;;;;;;48.33;38.33;23.20;30.60;;;;;;110452;1252;56133;-60
2023/02/12 10:45:43;;;;;;;;;47.00;37.75;23.20;30.60;;;;;;110250;1247;53791;-60
2023/02/12 10:48:17;;;;;;;;;48.00;39.00;23.20;30.70;;;;;;110506;1252;49786;-60
2023/02/12 10:51:01;;;;;;;;;46.33;37.00;23.10;30.50;;;;;;110384;1252;49677;-60
2023/02/12 10:53:32;;;;;;;;;47.00;38.00;23.10;30.60;;;;;;110509;1252;46069;-60
2023/02/12 10:56:12;;;;;;;;;47.00;39.00;23.10;30.60;;;;;;110413;1252;56629;-61
2023/02/12 10:58:51;;;;;;;;;48.33;39.33;23.10;30.60;;;;;;110408;1252;53839;-61
2023/02/12 11:01:37;;;;;;;;;53.50;40.00;23.10;30.60;;;;;;110443;1252;50588;-60
2023/02/12 11:04:25;;;;;;;;;41.00;32.00;23.00;30.50;;;;;;110474;1248;49229;-60
2023/02/12 11:07:07;;;;;;;;;51.00;42.00;23.00;30.40;;;;;;110426;1248;45448;-60
2023/02/12 11:09:39;;;;;;;;;44.67;37.33;23.00;31.00;;;;;;110448;1253;55484;-60
2023/02/12 11:12:27;;;;;;;;;45.00;35.00;23.00;30.60;;;;;;110327;1252;54004;-60
2023/02/12 11:14:57;;;;;;;;;47.33;35.67;22.90;30.30;;;;;;110304;1249;49760;-60
2023/02/12 11:17:45;;;;;;;;;46.00;38.00;22.90;30.30;;;;;;110235;1248;49087;-61
2023/02/12 11:20:15;;;;;;;;;49.50;38.50;22.90;30.30;;;;;;110296;1252;45282;-62
2023/02/12 11:22:59;;;;;;;;;45.33;37.67;22.90;30.10;;;;;;110356;1248;55378;-61
2023/02/12 11:25:29;;;;;;;;;46.00;36.33;22.90;30.30;;;;;;110405;1248;54404;-63
2023/02/12 11:28:15;;;;;;;;;45.00;34.00;22.80;30.10;;;;;;110435;1248;50385;-62
2023/02/12 11:30:53;;;;;;;;;42.50;36.00;22.80;30.00;;;;;;110452;1252;49442;-61
2023/02/12 11:33:23;;;;;;;;;46.33;39.00;22.80;30.20;;;;;;110293;1252;45611;-60
2023/02/12 11:35:58;;;;;;;;;46.00;39.00;22.70;30.00;;;;;;110452;1247;56370;-63
2023/02/12 11:38:28;;;;;;;;;45.00;36.50;22.70;30.00;;;;;;110513;1252;54094;-62
2023/02/12 11:40:59;;;;;;;;;48.00;40.00;22.70;30.00;;;;;;110356;1254;49728;-61
2023/02/12 11:43:29;;;;;;;;;46.00;38.00;22.60;30.00;;;;;;110488;1250;48965;-58
2023/02/12 11:45:58;;;;;;;;;42.00;34.00;22.60;30.10;;;;;;110307;1252;46597;-60
2023/02/12 11:48:32;;;;;;;;;47.75;38.25;22.50;30.00;;;;;;110474;1248;55314;-62
2023/02/12 11:51:02;;;;;;;;;43.67;36.67;22.50;30.50;;;;;;110457;1252;54007;-60
2023/02/12 11:53:30;;;;;;;;;46.00;34.50;22.50;30.40;;;;;;110450;1252;50001;-62
2023/02/12 11:56:03;;;;;;;;;45.33;36.00;22.50;30.10;;;;;;110604;1248;50578;-61
2023/02/12 11:58:30;;;;;;;;;45.00;37.00;22.40;30.30;;;;;;110413;1250;46291;-61
2023/02/12 12:01:01;;;;;;;;;45.00;34.50;22.40;30.00;;;;;;110412;1252;55612;-61
2023/02/12 12:03:53;;;;;;;;;45.00;36.00;22.40;30.10;;;;;;110274;1249;54783;-60
2023/02/12 12:06:54;;;;;;;;;47.00;36.50;22.40;30.10;;;;;;110266;1253;51067;-60
2023/02/12 12:09:28;;;;;;;;;47.00;39.67;22.40;30.10;;;;;;110123;1249;49847;-60
2023/02/12 12:12:22;;;;;;;;;41.50;34.50;22.40;30.00;;;;;;110408;1252;45880;-61
2023/02/12 12:20:40;;;;;;;;;46.50;36.00;22.30;30.00;;;;;;110358;1247;49327;-61
2023/02/12 12:23:13;;;;;;;;;43.00;35.00;22.30;30.20;;;;;;110220;1252;49979;-60
2023/02/12 12:25:48;;;;;;;;;44.67;36.00;22.20;30.00;;;;;;110777;1252;45927;-61
2023/02/12 12:28:25;;;;;;;;;45.00;37.00;22.20;29.70;;;;;;110515;1248;55745;-64
2023/02/12 12:31:03;;;;;;;;;48.00;36.00;22.20;30.00;;;;;;110435;1252;54070;-61
2023/02/12 12:33:39;;;;;;;;;44.50;38.00;22.20;30.00;;;;;;110463;1253;49976;-61
2023/02/12 12:36:12;;;;;;;;;43.50;34.50;22.10;30.00;;;;;;110494;1247;49546;-61
2023/02/12 12:38:57;;;;;;;;;43.50;36.00;22.10;30.10;;;;;;110438;1252;45637;-60
2023/02/12 12:41:59;;;;;;;;;43.00;37.00;22.00;30.00;;;;;;110351;1252;55531;-60
2023/02/12 12:45:04;;;;;;;;;45.00;36.00;22.00;30.00;;;;;;109943;1257;54052;-61
2023/02/12 12:47:53;;;;;;;;;35.00;31.00;22.00;30.10;;;;;;110380;1247;49026;-61
2023/02/12 12:50:26;;;;;;;;;41.00;35.50;22.00;30.30;;;;;;110359;1249;49155;-61
2023/02/12 12:53:19;;;;;;;;;46.75;38.00;21.90;30.20;;;;;;110527;1252;45924;-61
2023/02/12 12:56:02;;;;;;;;;44.67;36.00;21.90;30.10;;;;;;110504;1253;55587;-61